createdAt,value
2023-05-05T15:03:04.582Z,64.07
2023-05-05T15:07:06.113Z,62.00
2023-05-05T15:11:07.721Z,61.94
2023-05-05T15:15:10.223Z,61.72
2023-05-05T15:19:13.230Z,61.21
2023-05-05T15:23:14.585Z,61.04
2023-05-05T15:27:16.193Z,59.83
2023-05-05T15:31:17.769Z,59.70
2023-05-05T15:35:20.658Z,58.72
2023-05-05T15:39:22.002Z,58.93
2023-05-05T15:43:23.509Z,59.13
2023-05-05T15:47:25.126Z,58.51
2023-05-05T15:51:28.016Z,59.38
2023-05-05T15:55:29.521Z,61.36
2023-05-05T15:59:31.019Z,62.72
2023-05-05T16:03:32.612Z,61.43
2023-05-05T16:07:35.633Z,60.37
2023-05-05T16:11:37.362Z,63.87
2023-05-05T16:15:39.004Z,63.76
2023-05-05T16:19:40.534Z,61.89
2023-05-05T16:23:43.410Z,62.40
2023-05-05T16:27:45.060Z,62.05
2023-05-05T16:31:46.623Z,60.36
2023-05-05T16:35:48.201Z,59.31
2023-05-05T16:39:51.044Z,60.52
2023-05-05T16:43:52.543Z,59.52
2023-05-05T16:47:54.184Z,61.00
2023-05-05T16:51:55.713Z,62.03
2023-05-05T16:55:58.735Z,62.47
2023-05-05T17:00:00.300Z,61.52
2023-05-05T17:04:02.016Z,64.09
2023-05-05T17:08:03.723Z,66.74
2023-05-05T17:12:07.113Z,68.09
2023-05-05T17:16:08.751Z,68.55
2023-05-05T17:20:11.411Z,68.29
2023-05-05T17:24:12.903Z,69.23
2023-05-05T17:28:15.780Z,67.91
2023-05-05T17:32:17.118Z,68.25
2023-05-05T17:36:18.605Z,68.13
2023-05-05T17:40:20.112Z,67.91
2023-05-05T17:44:23.060Z,69.51
2023-05-05T17:48:25.686Z,70.11
2023-05-05T17:52:27.200Z,69.95
2023-05-05T17:56:28.713Z,70.99
2023-05-05T18:00:31.552Z,71.21
2023-05-05T18:04:32.904Z,72.99
2023-05-05T18:08:34.406Z,74.14
2023-05-05T18:12:36.058Z,76.08
2023-05-05T18:16:38.968Z,77.76
2023-05-05T18:20:40.312Z,78.83
2023-05-05T18:24:41.817Z,79.24
2023-05-05T18:28:43.311Z,80.94
2023-05-05T18:32:46.182Z,82.32
2023-05-05T18:36:48.203Z,83.69
2023-05-05T18:40:49.852Z,84.62
2023-05-05T18:44:51.372Z,84.88
2023-05-05T18:48:54.204Z,84.06
2023-05-05T18:52:55.726Z,85.06
2023-05-05T18:56:57.217Z,85.86
2023-05-05T19:00:58.728Z,86.63
2023-05-05T19:05:01.616Z,86.61
2023-05-05T19:09:03.400Z,87.93
2023-05-05T19:13:04.984Z,88.34
2023-05-05T19:17:06.562Z,88.24
2023-05-05T19:21:09.580Z,88.08
2023-05-05T19:25:11.518Z,88.08
2023-05-05T19:29:13.248Z,87.44
2023-05-05T19:33:14.845Z,87.28
2023-05-05T19:37:17.692Z,88.13
2023-05-05T19:41:19.371Z,87.83
2023-05-05T19:45:20.904Z,87.97
2023-05-05T19:49:22.403Z,89.05
2023-05-05T19:53:25.285Z,89.63
2023-05-05T19:57:26.768Z,89.81
2023-05-05T20:01:28.943Z,90.23
2023-05-05T20:05:30.513Z,90.30
2023-05-05T20:09:33.370Z,89.60
2023-05-05T20:13:34.879Z,92.67
2023-05-05T20:17:36.441Z,94.57
2023-05-05T20:21:37.980Z,94.79
2023-05-05T20:25:40.908Z,93.83
2023-05-05T20:29:42.416Z,94.01
2023-05-05T20:33:43.977Z,97.03
2023-05-05T20:37:45.493Z,97.50
2023-05-05T20:41:48.484Z,96.71
2023-05-05T20:45:50.003Z,100.00
2023-05-05T20:49:51.509Z,98.37
2023-05-05T20:53:53.009Z,99.00
2023-05-05T20:57:55.910Z,100.00
2023-05-05T21:01:57.438Z,100.00
2023-05-05T21:05:58.971Z,100.00
2023-05-05T21:10:00.734Z,100.00
2023-05-05T21:14:04.240Z,100.00
2023-05-05T21:18:05.910Z,100.00
2023-05-05T21:22:07.433Z,100.00
2023-05-05T21:26:09.235Z,100.00
2023-05-05T21:30:13.141Z,100.00
2023-05-05T21:34:14.854Z,100.00
2023-05-05T21:38:16.346Z,100.00
2023-05-05T21:42:17.955Z,100.00
2023-05-05T21:46:20.849Z,100.00
2023-05-05T21:50:22.407Z,100.00
2023-05-05T21:54:23.934Z,100.00
2023-05-05T21:58:25.464Z,100.00
2023-05-05T22:02:28.353Z,100.00
2023-05-05T22:06:29.920Z,100.00
2023-05-05T22:10:31.379Z,100.00
2023-05-05T22:14:32.838Z,100.00
2023-05-05T22:18:35.886Z,100.00
2023-05-05T22:22:37.285Z,100.00
2023-05-05T22:26:38.766Z,100.00
2023-05-05T22:30:40.472Z,100.00
2023-05-05T22:34:43.377Z,100.00
2023-05-05T22:38:44.856Z,100.00
2023-05-05T22:42:46.390Z,100.00
2023-05-05T22:46:47.936Z,100.00
2023-05-05T22:50:50.799Z,100.00
2023-05-05T22:54:52.270Z,100.00
2023-05-05T22:58:53.745Z,100.00
2023-05-05T23:02:55.328Z,100.00
2023-05-05T23:06:58.170Z,100.00
2023-05-05T23:11:00.151Z,100.00
2023-05-05T23:15:01.672Z,100.00
2023-05-05T23:19:03.148Z,100.00
2023-05-05T23:23:05.961Z,100.00
2023-05-05T23:27:07.446Z,100.00
2023-05-05T23:31:09.309Z,100.00
2023-05-05T23:35:11.266Z,100.00
2023-05-05T23:39:14.353Z,100.00
2023-05-05T23:43:15.915Z,100.00
2023-05-05T23:47:17.398Z,100.00
2023-05-05T23:51:18.868Z,100.00
2023-05-05T23:55:22.064Z,100.00
2023-05-05T23:59:23.525Z,100.00
